createdAt,value
2018-07-12T00:04:27.293Z,4.60
2018-07-12T00:09:30.074Z,5.10
2018-07-12T00:14:32.488Z,4.33
2018-07-12T00:19:34.885Z,4.33
2018-07-12T00:24:37.282Z,4.67
2018-07-12T00:29:39.703Z,4.57
2018-07-12T00:34:42.100Z,4.57
2018-07-12T00:39:44.779Z,5.10
2018-07-12T00:44:47.169Z,4.80
2018-07-12T00:49:49.556Z,4.93
2018-07-12T00:54:51.933Z,4.93
2018-07-12T00:59:55.052Z,5.20
2018-07-12T01:04:57.785Z,5.07
2018-07-12T01:10:00.460Z,5.57
2018-07-12T01:15:03.141Z,4.67
2018-07-12T01:20:05.532Z,4.97
2018-07-12T01:25:07.998Z,5.57
2018-07-12T01:30:10.868Z,5.43
2018-07-12T01:35:13.932Z,5.60
2018-07-12T01:40:16.976Z,5.30
2018-07-12T01:45:19.376Z,5.47
2018-07-12T01:50:22.529Z,6.10
2018-07-12T01:55:24.935Z,5.63
2018-07-12T02:00:27.361Z,5.93
2018-07-12T02:05:30.347Z,6.67
2018-07-12T02:10:33.008Z,6.23
2018-07-12T02:15:35.385Z,6.07
2018-07-12T02:20:37.760Z,6.40
2018-07-12T02:25:41.214Z,6.17
2018-07-12T02:30:44.417Z,5.47
2018-07-12T02:35:46.821Z,5.97
2018-07-12T02:40:49.223Z,6.40
2018-07-12T02:45:51.640Z,5.93
2018-07-12T02:50:56.020Z,6.17
2018-07-12T02:55:58.444Z,5.93
2018-07-12T03:01:00.853Z,5.80
2018-07-12T03:06:04.321Z,6.40
2018-07-12T03:11:07.437Z,5.67
2018-07-12T03:16:09.831Z,5.80
2018-07-12T03:21:12.201Z,6.37
2018-07-12T03:26:15.159Z,6.17
2018-07-12T03:31:17.604Z,5.90
2018-07-12T03:36:20.173Z,6.77
2018-07-12T03:41:23.676Z,5.90
2018-07-12T03:46:26.260Z,5.80
2018-07-12T03:51:28.952Z,6.10
2018-07-12T03:56:31.449Z,6.10
2018-07-12T04:01:33.945Z,6.67
2018-07-12T04:06:36.615Z,6.30
2018-07-12T04:11:39.012Z,6.33
2018-07-12T04:16:41.661Z,6.20
2018-07-12T04:21:44.794Z,5.90
2018-07-12T04:26:47.212Z,6.50
2018-07-12T04:31:49.620Z,6.57
2018-07-12T04:36:52.401Z,5.70
2018-07-12T04:41:55.070Z,6.83
2018-07-12T04:46:57.464Z,5.77
2018-07-12T04:52:00.608Z,6.83
2018-07-12T04:57:03.017Z,7.20
2018-07-12T05:02:05.404Z,7.30
2018-07-12T05:07:08.463Z,6.30
2018-07-12T05:12:10.833Z,7.07
2018-07-12T05:17:13.204Z,7.33
2018-07-12T05:22:16.239Z,7.60
2018-07-12T05:27:18.648Z,6.97
2018-07-12T05:32:23.985Z,7.00
2018-07-12T05:37:27.553Z,7.27
2018-07-12T05:42:31.108Z,7.43
2018-07-12T05:47:34.664Z,7.30
2018-07-12T05:52:38.221Z,6.80
2018-07-12T05:57:42.383Z,7.50
2018-07-12T06:02:46.043Z,7.13
2018-07-12T06:07:49.589Z,6.77
2018-07-12T06:12:53.172Z,7.20
2018-07-12T06:17:56.968Z,7.50
2018-07-12T06:23:00.633Z,6.13
2018-07-12T06:28:06.348Z,5.70
2018-07-12T06:33:09.925Z,6.30
2018-07-12T06:38:13.555Z,6.47
2018-07-12T06:43:17.381Z,6.03
2018-07-12T06:48:20.899Z,7.70
2018-07-12T06:53:25.276Z,8.00
2018-07-12T06:58:29.182Z,6.23
2018-07-12T07:03:33.116Z,7.30
2018-07-12T07:08:36.832Z,6.80
2018-07-12T07:13:40.422Z,7.03
2018-07-12T07:18:43.970Z,6.70
2018-07-12T07:23:48.259Z,7.47
2018-07-12T07:28:51.945Z,6.60
2018-07-12T07:33:55.480Z,6.40
2018-07-12T07:38:59.054Z,6.33
2018-07-12T07:44:02.569Z,5.43
2018-07-12T07:49:06.192Z,5.37
2018-07-12T07:54:09.703Z,5.80
2018-07-12T07:59:13.270Z,5.40
2018-07-12T08:04:16.841Z,5.57
2018-07-12T08:09:20.748Z,5.17
2018-07-12T08:14:24.577Z,6.47
2018-07-12T08:19:28.105Z,5.23
2018-07-12T08:24:31.995Z,5.60
2018-07-12T08:29:36.026Z,4.83
2018-07-12T08:34:39.611Z,4.63
2018-07-12T08:39:43.185Z,5.03
2018-07-12T08:44:46.876Z,5.37
2018-07-12T08:49:55.472Z,4.00
2018-07-12T08:54:59.279Z,4.57
2018-07-12T09:00:04.147Z,3.73
2018-07-12T09:05:08.067Z,4.27
2018-07-12T09:10:17.358Z,3.97
2018-07-12T09:15:20.940Z,4.43
2018-07-12T09:20:28.220Z,3.73
2018-07-12T09:25:31.810Z,3.60
2018-07-12T09:30:35.607Z,3.50
2018-07-12T09:35:39.134Z,3.23
2018-07-12T09:40:42.698Z,3.50
2018-07-12T09:45:46.262Z,3.37
2018-07-12T09:50:53.658Z,3.50
2018-07-12T09:55:57.241Z,3.37
2018-07-12T10:01:06.102Z,2.80
2018-07-12T10:06:14.934Z,2.57
2018-07-12T10:11:23.767Z,3.10
2018-07-12T10:16:32.683Z,2.60
2018-07-12T10:21:36.231Z,2.57
2018-07-12T10:26:40.069Z,2.00
2018-07-12T10:31:43.654Z,2.17
2018-07-12T10:36:47.170Z,2.40
2018-07-12T10:41:50.733Z,2.43
2018-07-12T10:46:54.682Z,2.30
2018-07-12T10:51:58.276Z,1.83
2018-07-12T10:57:02.672Z,2.30
2018-07-12T11:02:06.296Z,2.33
2018-07-12T11:07:11.968Z,2.40
2018-07-12T11:12:15.593Z,2.33
2018-07-12T11:17:19.146Z,2.40
2018-07-12T11:22:23.621Z,2.40
2018-07-12T11:27:28.385Z,2.10
2018-07-12T11:32:31.936Z,2.47
2018-07-12T11:37:36.108Z,2.50
2018-07-12T11:42:42.301Z,2.70
2018-07-12T11:47:45.872Z,2.33
2018-07-12T11:52:49.447Z,2.33
2018-07-12T11:57:53.051Z,2.80
2018-07-12T12:02:56.592Z,2.97
2018-07-12T12:08:00.130Z,2.43
2018-07-12T12:13:03.749Z,2.83
2018-07-12T12:18:07.588Z,2.70
2018-07-12T12:23:11.140Z,2.70
2018-07-12T12:28:14.662Z,2.80
2018-07-12T12:33:18.544Z,2.57
2018-07-12T12:38:22.886Z,2.30
2018-07-12T12:43:26.457Z,2.60
2018-07-12T12:48:30.052Z,2.50
2018-07-12T12:53:33.630Z,2.40
2018-07-12T12:58:37.193Z,2.60
2018-07-12T13:03:40.751Z,2.50
2018-07-12T13:08:44.287Z,2.70
2018-07-12T13:13:48.041Z,2.10
2018-07-12T13:18:51.584Z,2.70
2018-07-12T13:23:55.169Z,2.70
2018-07-12T13:28:58.687Z,2.50
2018-07-12T13:34:02.476Z,2.60
2018-07-12T13:39:07.823Z,2.00
2018-07-12T13:44:19.601Z,2.33
2018-07-12T13:49:23.168Z,2.10
2018-07-12T13:54:26.729Z,2.00
2018-07-12T13:59:29.970Z,2.10
2018-07-12T14:04:33.485Z,2.63
2018-07-12T14:09:37.016Z,2.70
2018-07-12T14:14:40.557Z,2.20
2018-07-12T14:19:44.128Z,2.83
2018-07-12T14:24:47.954Z,2.30
2018-07-12T14:29:51.566Z,2.47
2018-07-12T14:34:55.619Z,2.03
2018-07-12T14:39:58.830Z,2.27
2018-07-12T14:45:02.363Z,2.20
2018-07-12T14:50:06.292Z,2.67
2018-07-12T14:55:09.955Z,2.30
2018-07-12T15:00:14.012Z,2.50
2018-07-12T15:05:17.566Z,2.80
2018-07-12T15:10:21.179Z,2.70
2018-07-12T15:15:24.961Z,2.40
2018-07-12T15:20:28.733Z,2.83
2018-07-12T15:25:32.345Z,2.50
2018-07-12T15:30:35.935Z,2.60
2018-07-12T15:35:39.779Z,2.83
2018-07-12T15:40:43.269Z,2.80
2018-07-12T15:45:47.068Z,2.53
2018-07-12T15:50:51.145Z,2.60
2018-07-12T15:55:54.845Z,3.03
2018-07-12T16:00:58.380Z,2.53
2018-07-12T16:06:02.178Z,2.77
2018-07-12T16:11:05.746Z,2.60
2018-07-12T16:16:09.339Z,2.50
2018-07-12T16:21:13.117Z,2.80
2018-07-12T16:26:16.643Z,2.43
2018-07-12T16:31:21.097Z,2.20
2018-07-12T16:36:24.669Z,2.47
2018-07-12T16:41:28.210Z,2.47
2018-07-12T16:46:31.774Z,2.20
2018-07-12T16:51:35.296Z,2.93
2018-07-12T16:56:38.831Z,2.57
2018-07-12T17:01:42.352Z,3.10
2018-07-12T17:06:45.899Z,6.93
2018-07-12T17:11:49.420Z,12.33
2018-07-12T17:16:52.991Z,7.80
2018-07-12T17:21:56.788Z,3.77
2018-07-12T17:27:00.333Z,11.93
2018-07-12T17:32:03.880Z,9.60
2018-07-12T17:37:07.445Z,3.40
2018-07-12T17:42:10.974Z,3.30
2018-07-12T17:47:14.558Z,6.03
2018-07-12T17:52:18.112Z,4.00
2018-07-12T17:57:21.627Z,3.50
2018-07-12T18:02:25.127Z,4.23
2018-07-12T18:07:28.662Z,3.57
2018-07-12T18:12:32.186Z,3.27
2018-07-12T18:17:35.719Z,3.77
2018-07-12T18:22:39.700Z,3.97
2018-07-12T18:27:43.256Z,3.00
2018-07-12T18:32:47.153Z,3.40
2018-07-12T18:37:50.824Z,3.77
2018-07-12T18:42:54.380Z,3.47
2018-07-12T18:47:57.941Z,3.70
2018-07-12T18:53:01.472Z,4.47
2018-07-12T18:58:05.023Z,4.17
2018-07-12T19:03:08.588Z,4.10
2018-07-12T19:08:12.088Z,4.13
2018-07-12T19:13:15.651Z,4.00
2018-07-12T19:18:19.159Z,5.03
2018-07-12T19:23:22.686Z,4.40
2018-07-12T19:28:26.234Z,4.90
2018-07-12T19:33:29.864Z,4.50
2018-07-12T19:38:33.579Z,3.90
2018-07-12T19:43:37.614Z,3.60
2018-07-12T19:48:41.244Z,3.10
2018-07-12T19:53:44.470Z,4.47
2018-07-12T19:58:48.013Z,4.30
2018-07-12T20:03:51.705Z,4.13
2018-07-12T20:08:55.551Z,4.13
2018-07-12T20:13:59.379Z,3.80
2018-07-12T20:19:02.920Z,4.20
2018-07-12T20:24:07.346Z,4.73
2018-07-12T20:29:12.735Z,3.50
2018-07-12T20:34:16.278Z,4.27
2018-07-12T20:39:19.824Z,3.90
2018-07-12T20:44:23.371Z,3.90
2018-07-12T20:49:26.856Z,4.23
2018-07-12T20:54:30.437Z,4.00
2018-07-12T20:59:34.196Z,3.90
2018-07-12T21:04:38.225Z,4.13
2018-07-12T21:09:41.747Z,4.23
2018-07-12T21:14:45.335Z,4.57
2018-07-12T21:19:48.984Z,4.40
2018-07-12T21:24:52.545Z,4.70
2018-07-12T21:29:56.074Z,5.30
2018-07-12T21:34:59.640Z,4.63
2018-07-12T21:40:03.464Z,4.13
2018-07-12T21:45:07.003Z,3.90
2018-07-12T21:50:10.820Z,4.40
2018-07-12T21:55:14.450Z,4.10
2018-07-12T22:00:17.955Z,4.00
2018-07-12T22:05:21.503Z,4.10
2018-07-12T22:10:25.032Z,4.77
2018-07-12T22:15:28.536Z,4.30
2018-07-12T22:20:32.363Z,4.90
2018-07-12T22:25:36.115Z,5.33
2018-07-12T22:30:39.933Z,5.10
2018-07-12T22:35:43.334Z,4.33
2018-07-12T22:40:46.877Z,4.90
2018-07-12T22:45:50.424Z,4.73
2018-07-12T22:50:57.976Z,4.40
2018-07-12T22:56:01.506Z,4.20
2018-07-12T23:01:05.040Z,4.57
2018-07-12T23:06:08.613Z,4.40
2018-07-12T23:11:12.771Z,5.13
2018-07-12T23:16:16.400Z,4.87
2018-07-12T23:21:20.299Z,4.63
2018-07-12T23:26:25.628Z,5.20
2018-07-12T23:31:29.226Z,4.63
2018-07-12T23:36:32.777Z,4.30
2018-07-12T23:41:36.325Z,4.37
2018-07-12T23:46:39.869Z,4.67
2018-07-12T23:51:43.456Z,4.77
2018-07-12T23:56:46.975Z,4.60
